sensor_id;sensor_type;location;lat;lon;timestamp;P1;durP1;ratioP1;P2;durP2;ratioP2
43994;SDS011;51687;52.160;5.298;2023-04-01T00:01:46;20.25;;;9.10;;
43994;SDS011;51687;52.160;5.298;2023-04-01T00:04:13;24.33;;;9.88;;
43994;SDS011;51687;52.160;5.298;2023-04-01T00:06:42;23.73;;;10.23;;
43994;SDS011;51687;52.160;5.298;2023-04-01T00:09:09;30.05;;;9.98;;
43994;SDS011;51687;52.160;5.298;2023-04-01T00:11:36;19.40;;;9.85;;
43994;SDS011;51687;52.160;5.298;2023-04-01T00:14:03;32.85;;;11.13;;
43994;SDS011;51687;52.160;5.298;2023-04-01T00:16:31;21.75;;;9.88;;
43994;SDS011;51687;52.160;5.298;2023-04-01T00:18:58;24.42;;;9.48;;
43994;SDS011;51687;52.160;5.298;2023-04-01T00:21:26;25.35;;;9.27;;
43994;SDS011;51687;52.160;5.298;2023-04-01T00:23:53;24.77;;;8.25;;
43994;SDS011;51687;52.160;5.298;2023-04-01T00:26:20;18.23;;;8.40;;
43994;SDS011;51687;52.160;5.298;2023-04-01T00:28:48;20.25;;;8.48;;
43994;SDS011;51687;52.160;5.298;2023-04-01T00:31:16;14.05;;;7.35;;
43994;SDS011;51687;52.160;5.298;2023-04-01T00:33:44;14.43;;;8.90;;
43994;SDS011;51687;52.160;5.298;2023-04-01T00:36:12;23.73;;;9.60;;
43994;SDS011;51687;52.160;5.298;2023-04-01T00:38:40;20.02;;;8.77;;
43994;SDS011;51687;52.160;5.298;2023-04-01T00:41:09;20.55;;;10.30;;
43994;SDS011;51687;52.160;5.298;2023-04-01T00:43:41;29.98;;;10.82;;
43994;SDS011;51687;52.160;5.298;2023-04-01T00:46:09;28.33;;;11.43;;
43994;SDS011;51687;52.160;5.298;2023-04-01T00:48:37;23.10;;;11.13;;
43994;SDS011;51687;52.160;5.298;2023-04-01T00:51:12;22.77;;;12.30;;
43994;SDS011;51687;52.160;5.298;2023-04-01T00:53:42;20.55;;;11.82;;
43994;SDS011;51687;52.160;5.298;2023-04-01T00:56:12;24.88;;;12.20;;
43994;SDS011;51687;52.160;5.298;2023-04-01T00:58:44;21.50;;;12.00;;
43994;SDS011;51687;52.160;5.298;2023-04-01T01:01:13;23.45;;;12.85;;
43994;SDS011;51687;52.160;5.298;2023-04-01T01:03:40;24.65;;;13.20;;
43994;SDS011;51687;52.160;5.298;2023-04-01T01:06:23;22.55;;;12.10;;
43994;SDS011;51687;52.160;5.298;2023-04-01T01:11:51;19.88;;;11.80;;
43994;SDS011;51687;52.160;5.298;2023-04-01T01:14:52;17.92;;;11.65;;
43994;SDS011;51687;52.160;5.298;2023-04-01T01:26:55;11.98;;;8.57;;
43994;SDS011;51687;52.160;5.298;2023-04-01T01:29:08;12.38;;;8.20;;
43994;SDS011;51687;52.160;5.298;2023-04-01T01:31:54;10.02;;;6.72;;
43994;SDS011;51687;52.160;5.298;2023-04-01T01:34:36;9.07;;;6.40;;
43994;SDS011;51687;52.160;5.298;2023-04-01T01:37:10;9.70;;;7.28;;
43994;SDS011;51687;52.160;5.298;2023-04-01T01:39:39;8.80;;;6.15;;
43994;SDS011;51687;52.160;5.298;2023-04-01T01:42:09;7.80;;;6.03;;
43994;SDS011;51687;52.160;5.298;2023-04-01T01:44:38;7.15;;;5.95;;
43994;SDS011;51687;52.160;5.298;2023-04-01T01:47:06;5.68;;;4.50;;
43994;SDS011;51687;52.160;5.298;2023-04-01T01:49:34;7.50;;;5.20;;
43994;SDS011;51687;52.160;5.298;2023-04-01T01:52:02;6.20;;;4.07;;
43994;SDS011;51687;52.160;5.298;2023-04-01T01:54:30;8.52;;;4.60;;
43994;SDS011;51687;52.160;5.298;2023-04-01T01:57:07;7.20;;;4.03;;
43994;SDS011;51687;52.160;5.298;2023-04-01T01:59:36;5.55;;;4.50;;
43994;SDS011;51687;52.160;5.298;2023-04-01T02:02:04;7.60;;;4.20;;
43994;SDS011;51687;52.160;5.298;2023-04-01T02:04:35;5.07;;;4.63;;
43994;SDS011;51687;52.160;5.298;2023-04-01T02:07:03;5.47;;;3.90;;
43994;SDS011;51687;52.160;5.298;2023-04-01T02:09:32;4.75;;;4.10;;
43994;SDS011;51687;52.160;5.298;2023-04-01T02:12:01;4.63;;;3.65;;
43994;SDS011;51687;52.160;5.298;2023-04-01T02:14:52;8.10;;;3.75;;
43994;SDS011;51687;52.160;5.298;2023-04-01T02:17:20;5.05;;;3.45;;
43994;SDS011;51687;52.160;5.298;2023-04-01T02:19:55;5.40;;;3.63;;
43994;SDS011;51687;52.160;5.298;2023-04-01T02:22:24;5.32;;;3.45;;
43994;SDS011;51687;52.160;5.298;2023-04-01T02:27:19;5.40;;;3.65;;
43994;SDS011;51687;52.160;5.298;2023-04-01T02:29:46;3.38;;;3.03;;
43994;SDS011;51687;52.160;5.298;2023-04-01T02:32:13;6.15;;;3.50;;
43994;SDS011;51687;52.160;5.298;2023-04-01T02:34:41;6.40;;;3.55;;
43994;SDS011;51687;52.160;5.298;2023-04-01T02:37:10;5.38;;;3.88;;
43994;SDS011;51687;52.160;5.298;2023-04-01T02:39:38;4.25;;;3.63;;
43994;SDS011;51687;52.160;5.298;2023-04-01T02:42:05;5.88;;;3.33;;
43994;SDS011;51687;52.160;5.298;2023-04-01T02:44:33;4.15;;;3.17;;
43994;SDS011;51687;52.160;5.298;2023-04-01T02:47:00;4.97;;;3.28;;
43994;SDS011;51687;52.160;5.298;2023-04-01T02:49:28;3.63;;;2.58;;
43994;SDS011;51687;52.160;5.298;2023-04-01T02:51:55;4.47;;;2.88;;
43994;SDS011;51687;52.160;5.298;2023-04-01T02:54:22;5.45;;;3.17;;
43994;SDS011;51687;52.160;5.298;2023-04-01T02:56:49;5.05;;;2.85;;
43994;SDS011;51687;52.160;5.298;2023-04-01T02:59:17;3.83;;;3.03;;
43994;SDS011;51687;52.160;5.298;2023-04-01T03:01:44;4.00;;;3.35;;
43994;SDS011;51687;52.160;5.298;2023-04-01T03:04:11;3.45;;;3.05;;
43994;SDS011;51687;52.160;5.298;2023-04-01T03:06:38;5.45;;;3.75;;
43994;SDS011;51687;52.160;5.298;2023-04-01T03:09:05;5.22;;;4.05;;
43994;SDS011;51687;52.160;5.298;2023-04-01T03:11:33;6.05;;;4.53;;
43994;SDS011;51687;52.160;5.298;2023-04-01T03:14:00;7.30;;;6.32;;
43994;SDS011;51687;52.160;5.298;2023-04-01T03:16:27;8.85;;;8.05;;
43994;SDS011;51687;52.160;5.298;2023-04-01T03:18:54;12.20;;;9.15;;
43994;SDS011;51687;52.160;5.298;2023-04-01T03:21:25;12.35;;;9.65;;
43994;SDS011;51687;52.160;5.298;2023-04-01T03:23:52;13.73;;;10.30;;
43994;SDS011;51687;52.160;5.298;2023-04-01T03:26:19;18.63;;;11.48;;
43994;SDS011;51687;52.160;5.298;2023-04-01T03:28:48;17.50;;;12.32;;
43994;SDS011;51687;52.160;5.298;2023-04-01T03:31:15;16.17;;;14.63;;
43994;SDS011;51687;52.160;5.298;2023-04-01T03:33:43;19.40;;;16.35;;
43994;SDS011;51687;52.160;5.298;2023-04-01T03:36:10;26.80;;;17.83;;
43994;SDS011;51687;52.160;5.298;2023-04-01T03:38:42;20.52;;;16.73;;
43994;SDS011;51687;52.160;5.298;2023-04-01T03:41:13;26.75;;;18.27;;
43994;SDS011;51687;52.160;5.298;2023-04-01T03:43:41;24.30;;;17.77;;
43994;SDS011;51687;52.160;5.298;2023-04-01T03:46:08;19.63;;;16.60;;
43994;SDS011;51687;52.160;5.298;2023-04-01T03:48:35;20.55;;;17.20;;
43994;SDS011;51687;52.160;5.298;2023-04-01T03:51:06;19.67;;;16.67;;
43994;SDS011;51687;52.160;5.298;2023-04-01T03:53:33;19.85;;;15.10;;
43994;SDS011;51687;52.160;5.298;2023-04-01T03:56:04;20.60;;;15.98;;
43994;SDS011;51687;52.160;5.298;2023-04-01T03:58:31;18.38;;;15.57;;
43994;SDS011;51687;52.160;5.298;2023-04-01T04:00:59;20.88;;;14.50;;
43994;SDS011;51687;52.160;5.298;2023-04-01T04:03:26;14.55;;;13.15;;
43994;SDS011;51687;52.160;5.298;2023-04-01T04:05:54;13.02;;;11.93;;
43994;SDS011;51687;52.160;5.298;2023-04-01T04:08:23;14.13;;;12.57;;
43994;SDS011;51687;52.160;5.298;2023-04-01T04:10:57;12.82;;;11.50;;
43994;SDS011;51687;52.160;5.298;2023-04-01T04:13:24;12.48;;;11.40;;
43994;SDS011;51687;52.160;5.298;2023-04-01T04:15:51;12.15;;;10.95;;
43994;SDS011;51687;52.160;5.298;2023-04-01T04:18:18;12.52;;;11.25;;
43994;SDS011;51687;52.160;5.298;2023-04-01T04:20:46;11.65;;;10.57;;
43994;SDS011;51687;52.160;5.298;2023-04-01T04:23:16;12.88;;;11.82;;
43994;SDS011;51687;52.160;5.298;2023-04-01T04:26:00;11.90;;;10.80;;
43994;SDS011;51687;52.160;5.298;2023-04-01T04:28:28;11.35;;;10.35;;
43994;SDS011;51687;52.160;5.298;2023-04-01T04:30:55;9.20;;;8.40;;
43994;SDS011;51687;52.160;5.298;2023-04-01T04:33:23;9.25;;;8.45;;
43994;SDS011;51687;52.160;5.298;2023-04-01T04:35:51;8.77;;;8.05;;
43994;SDS011;51687;52.160;5.298;2023-04-01T04:38:18;8.43;;;7.63;;
43994;SDS011;51687;52.160;5.298;2023-04-01T04:40:46;6.35;;;5.75;;
43994;SDS011;51687;52.160;5.298;2023-04-01T04:43:13;5.82;;;5.43;;
43994;SDS011;51687;52.160;5.298;2023-04-01T04:45:41;6.03;;;4.80;;
43994;SDS011;51687;52.160;5.298;2023-04-01T04:48:09;5.40;;;5.00;;
43994;SDS011;51687;52.160;5.298;2023-04-01T04:50:36;5.28;;;4.88;;
43994;SDS011;51687;52.160;5.298;2023-04-01T04:53:03;5.90;;;5.40;;
43994;SDS011;51687;52.160;5.298;2023-04-01T04:55:31;5.88;;;5.38;;
43994;SDS011;51687;52.160;5.298;2023-04-01T04:57:58;6.97;;;6.38;;
43994;SDS011;51687;52.160;5.298;2023-04-01T05:00:25;8.07;;;6.47;;
43994;SDS011;51687;52.160;5.298;2023-04-01T05:02:52;8.02;;;7.40;;
43994;SDS011;51687;52.160;5.298;2023-04-01T05:05:20;8.32;;;7.57;;
43994;SDS011;51687;52.160;5.298;2023-04-01T05:07:47;9.27;;;8.55;;
43994;SDS011;51687;52.160;5.298;2023-04-01T05:10:14;9.30;;;8.48;;
43994;SDS011;51687;52.160;5.298;2023-04-01T05:12:41;10.55;;;9.60;;
43994;SDS011;51687;52.160;5.298;2023-04-01T05:15:09;9.55;;;8.85;;
43994;SDS011;51687;52.160;5.298;2023-04-01T05:17:36;9.55;;;8.85;;
43994;SDS011;51687;52.160;5.298;2023-04-01T05:20:03;10.30;;;9.55;;
43994;SDS011;51687;52.160;5.298;2023-04-01T05:22:31;9.80;;;9.05;;
43994;SDS011;51687;52.160;5.298;2023-04-01T05:24:58;8.52;;;7.93;;
43994;SDS011;51687;52.160;5.298;2023-04-01T05:27:25;8.90;;;8.30;;
43994;SDS011;51687;52.160;5.298;2023-04-01T05:29:52;8.75;;;8.15;;
43994;SDS011;51687;52.160;5.298;2023-04-01T05:32:19;8.63;;;8.02;;
43994;SDS011;51687;52.160;5.298;2023-04-01T05:34:49;8.18;;;7.55;;
43994;SDS011;51687;52.160;5.298;2023-04-01T05:37:17;7.35;;;6.80;;
43994;SDS011;51687;52.160;5.298;2023-04-01T05:39:44;8.73;;;8.10;;
43994;SDS011;51687;52.160;5.298;2023-04-01T05:42:11;8.23;;;7.53;;
43994;SDS011;51687;52.160;5.298;2023-04-01T05:44:38;7.68;;;6.97;;
43994;SDS011;51687;52.160;5.298;2023-04-01T05:47:06;8.55;;;7.95;;
43994;SDS011;51687;52.160;5.298;2023-04-01T05:49:33;8.43;;;7.82;;
43994;SDS011;51687;52.160;5.298;2023-04-01T05:52:00;7.95;;;7.25;;
43994;SDS011;51687;52.160;5.298;2023-04-01T05:54:28;7.13;;;6.63;;
43994;SDS011;51687;52.160;5.298;2023-04-01T05:56:55;8.88;;;8.18;;
43994;SDS011;51687;52.160;5.298;2023-04-01T05:59:23;7.75;;;7.15;;
43994;SDS011;51687;52.160;5.298;2023-04-01T06:01:50;7.50;;;7.00;;
43994;SDS011;51687;52.160;5.298;2023-04-01T06:04:17;7.97;;;7.38;;
43994;SDS011;51687;52.160;5.298;2023-04-01T06:06:45;8.32;;;7.63;;
43994;SDS011;51687;52.160;5.298;2023-04-01T06:09:19;7.97;;;7.47;;
43994;SDS011;51687;52.160;5.298;2023-04-01T06:12:08;7.65;;;7.15;;
43994;SDS011;51687;52.160;5.298;2023-04-01T06:22:22;11.35;;;10.52;;
43994;SDS011;51687;52.160;5.298;2023-04-01T06:40:52;4.15;;;3.85;;
43994;SDS011;51687;52.160;5.298;2023-04-01T06:45:57;4.50;;;3.65;;
43994;SDS011;51687;52.160;5.298;2023-04-01T06:56:38;3.90;;;3.55;;
43994;SDS011;51687;52.160;5.298;2023-04-01T06:59:17;4.10;;;3.80;;
43994;SDS011;51687;52.160;5.298;2023-04-01T07:01:45;4.68;;;3.78;;
43994;SDS011;51687;52.160;5.298;2023-04-01T07:04:37;6.57;;;3.90;;
43994;SDS011;51687;52.160;5.298;2023-04-01T07:07:09;4.10;;;3.80;;
43994;SDS011;51687;52.160;5.298;2023-04-01T07:09:40;4.80;;;4.50;;
43994;SDS011;51687;52.160;5.298;2023-04-01T07:14:36;4.85;;;4.55;;
43994;SDS011;51687;52.160;5.298;2023-04-01T07:17:16;4.45;;;4.10;;
43994;SDS011;51687;52.160;5.298;2023-04-01T07:22:50;4.18;;;3.88;;
43994;SDS011;51687;52.160;5.298;2023-04-01T07:28:21;4.82;;;4.43;;
43994;SDS011;51687;52.160;5.298;2023-04-01T07:36:09;5.78;;;5.20;;
43994;SDS011;51687;52.160;5.298;2023-04-01T07:41:56;7.40;;;6.75;;
43994;SDS011;51687;52.160;5.298;2023-04-01T07:44:54;8.18;;;7.38;;
43994;SDS011;51687;52.160;5.298;2023-04-01T07:50:57;8.27;;;7.68;;
43994;SDS011;51687;52.160;5.298;2023-04-01T07:53:50;8.88;;;8.18;;
43994;SDS011;51687;52.160;5.298;2023-04-01T07:56:56;8.93;;;8.20;;
43994;SDS011;51687;52.160;5.298;2023-04-01T08:02:14;10.32;;;9.43;;
43994;SDS011;51687;52.160;5.298;2023-04-01T08:05:12;11.23;;;8.90;;
43994;SDS011;51687;52.160;5.298;2023-04-01T08:08:06;9.90;;;9.07;;
43994;SDS011;51687;52.160;5.298;2023-04-01T08:21:30;10.80;;;9.82;;
43994;SDS011;51687;52.160;5.298;2023-04-01T08:24:10;11.05;;;10.00;;
43994;SDS011;51687;52.160;5.298;2023-04-01T08:26:49;11.02;;;9.98;;
43994;SDS011;51687;52.160;5.298;2023-04-01T08:29:22;10.75;;;9.82;;
43994;SDS011;51687;52.160;5.298;2023-04-01T08:32:00;11.20;;;10.02;;
43994;SDS011;51687;52.160;5.298;2023-04-01T08:34:40;10.18;;;9.27;;
43994;SDS011;51687;52.160;5.298;2023-04-01T08:37:21;10.65;;;9.68;;
43994;SDS011;51687;52.160;5.298;2023-04-01T08:39:58;10.32;;;9.38;;
43994;SDS011;51687;52.160;5.298;2023-04-01T08:42:59;9.07;;;8.38;;
43994;SDS011;51687;52.160;5.298;2023-04-01T08:48:39;11.10;;;8.52;;
43994;SDS011;51687;52.160;5.298;2023-04-01T08:57:13;8.05;;;7.28;;
43994;SDS011;51687;52.160;5.298;2023-04-01T09:02:32;8.35;;;7.60;;
43994;SDS011;51687;52.160;5.298;2023-04-01T09:05:34;8.63;;;7.93;;
43994;SDS011;51687;52.160;5.298;2023-04-01T09:08:41;8.93;;;8.13;;
43994;SDS011;51687;52.160;5.298;2023-04-01T09:28:45;4.28;;;3.88;;
43994;SDS011;51687;52.160;5.298;2023-04-01T09:34:38;5.25;;;4.35;;
43994;SDS011;51687;52.160;5.298;2023-04-01T09:43:42;4.63;;;4.32;;
43994;SDS011;51687;52.160;5.298;2023-04-01T09:46:14;5.50;;;5.10;;
43994;SDS011;51687;52.160;5.298;2023-04-01T09:49:09;4.57;;;4.28;;
43994;SDS011;51687;52.160;5.298;2023-04-01T10:19:24;9.30;;;8.60;;
43994;SDS011;51687;52.160;5.298;2023-04-01T10:39:20;9.60;;;8.80;;
43994;SDS011;51687;52.160;5.298;2023-04-01T11:05:05;3.65;;;3.33;;
43994;SDS011;51687;52.160;5.298;2023-04-01T11:13:10;4.22;;;3.92;;
43994;SDS011;51687;52.160;5.298;2023-04-01T11:23:58;3.90;;;3.65;;
43994;SDS011;51687;52.160;5.298;2023-04-01T11:29:03;3.63;;;3.42;;
43994;SDS011;51687;52.160;5.298;2023-04-01T11:39:59;3.33;;;3.05;;
43994;SDS011;51687;52.160;5.298;2023-04-01T11:42:40;3.58;;;3.28;;
43994;SDS011;51687;52.160;5.298;2023-04-01T11:53:02;3.92;;;3.65;;
43994;SDS011;51687;52.160;5.298;2023-04-01T12:01:27;5.65;;;5.25;;
43994;SDS011;51687;52.160;5.298;2023-04-01T12:07:19;7.15;;;6.75;;
43994;SDS011;51687;52.160;5.298;2023-04-01T12:15:11;6.82;;;6.43;;
43994;SDS011;51687;52.160;5.298;2023-04-01T12:21:36;6.32;;;5.93;;
43994;SDS011;51687;52.160;5.298;2023-04-01T12:27:10;7.43;;;6.93;;
43994;SDS011;51687;52.160;5.298;2023-04-01T12:35:30;8.50;;;7.80;;
43994;SDS011;51687;52.160;5.298;2023-04-01T12:38:23;8.88;;;8.18;;
43994;SDS011;51687;52.160;5.298;2023-04-01T12:49:55;11.30;;;10.43;;
43994;SDS011;51687;52.160;5.298;2023-04-01T12:52:55;10.68;;;9.98;;
43994;SDS011;51687;52.160;5.298;2023-04-01T12:55:35;11.27;;;10.45;;
43994;SDS011;51687;52.160;5.298;2023-04-01T13:01:25;12.18;;;11.27;;
43994;SDS011;51687;52.160;5.298;2023-04-01T13:21:16;7.95;;;7.30;;
43994;SDS011;51687;52.160;5.298;2023-04-01T13:30:13;7.78;;;7.28;;
43994;SDS011;51687;52.160;5.298;2023-04-01T13:41:22;5.05;;;4.75;;
43994;SDS011;51687;52.160;5.298;2023-04-01T13:43:52;5.75;;;5.40;;
43994;SDS011;51687;52.160;5.298;2023-04-01T13:46:31;3.92;;;3.65;;
43994;SDS011;51687;52.160;5.298;2023-04-01T13:49:13;4.55;;;4.25;;
43994;SDS011;51687;52.160;5.298;2023-04-01T13:57:34;5.57;;;5.18;;
43994;SDS011;51687;52.160;5.298;2023-04-01T14:08:41;5.75;;;5.43;;
43994;SDS011;51687;52.160;5.298;2023-04-01T14:19:46;6.60;;;6.07;;
43994;SDS011;51687;52.160;5.298;2023-04-01T14:25:29;6.80;;;6.20;;
43994;SDS011;51687;52.160;5.298;2023-04-01T14:31:20;6.63;;;6.13;;
43994;SDS011;51687;52.160;5.298;2023-04-01T14:37:03;6.90;;;6.40;;
43994;SDS011;51687;52.160;5.298;2023-04-01T14:48:28;4.65;;;4.35;;
43994;SDS011;51687;52.160;5.298;2023-04-01T14:51:18;4.68;;;4.38;;
43994;SDS011;51687;52.160;5.298;2023-04-01T14:56:35;4.40;;;4.03;;
43994;SDS011;51687;52.160;5.298;2023-04-01T15:01:58;4.50;;;4.20;;
43994;SDS011;51687;52.160;5.298;2023-04-01T15:07:27;5.45;;;5.05;;
43994;SDS011;51687;52.160;5.298;2023-04-01T15:10:29;4.40;;;4.15;;
43994;SDS011;51687;52.160;5.298;2023-04-01T15:13:12;3.95;;;3.70;;
43994;SDS011;51687;52.160;5.298;2023-04-01T15:24:26;4.82;;;4.40;;
43994;SDS011;51687;52.160;5.298;2023-04-01T15:40:53;4.03;;;3.83;;
43994;SDS011;51687;52.160;5.298;2023-04-01T15:43:30;4.30;;;4.00;;
43994;SDS011;51687;52.160;5.298;2023-04-01T15:46:25;3.70;;;3.50;;
43994;SDS011;51687;52.160;5.298;2023-04-01T15:58:03;3.55;;;3.35;;
43994;SDS011;51687;52.160;5.298;2023-04-01T16:00:40;3.63;;;3.42;;
43994;SDS011;51687;52.160;5.298;2023-04-01T16:03:22;3.92;;;3.72;;
43994;SDS011;51687;52.160;5.298;2023-04-01T16:06:01;3.85;;;3.65;;
43994;SDS011;51687;52.160;5.298;2023-04-01T16:08:56;3.08;;;2.88;;
43994;SDS011;51687;52.160;5.298;2023-04-01T16:20:17;2.25;;;2.15;;
43994;SDS011;51687;52.160;5.298;2023-04-01T16:22:54;2.45;;;2.35;;
43994;SDS011;51687;52.160;5.298;2023-04-01T16:25:32;2.50;;;2.30;;
43994;SDS011;51687;52.160;5.298;2023-04-01T16:33:38;2.00;;;1.73;;
43994;SDS011;51687;52.160;5.298;2023-04-01T16:36:29;2.60;;;2.50;;
43994;SDS011;51687;52.160;5.298;2023-04-01T16:41:49;3.05;;;2.85;;
43994;SDS011;51687;52.160;5.298;2023-04-01T16:44:44;3.03;;;2.72;;
43994;SDS011;51687;52.160;5.298;2023-04-01T16:47:23;2.28;;;2.08;;
43994;SDS011;51687;52.160;5.298;2023-04-01T16:50:06;2.08;;;1.98;;
43994;SDS011;51687;52.160;5.298;2023-04-01T16:53:02;1.73;;;1.63;;
43994;SDS011;51687;52.160;5.298;2023-04-01T16:55:45;2.20;;;2.00;;
43994;SDS011;51687;52.160;5.298;2023-04-01T17:01:05;2.95;;;2.75;;
43994;SDS011;51687;52.160;5.298;2023-04-01T17:03:50;2.60;;;2.40;;
43994;SDS011;51687;52.160;5.298;2023-04-01T17:09:23;2.00;;;1.90;;
43994;SDS011;51687;52.160;5.298;2023-04-01T17:17:43;2.20;;;2.10;;
43994;SDS011;51687;52.160;5.298;2023-04-01T17:23:24;2.67;;;2.40;;
43994;SDS011;51687;52.160;5.298;2023-04-01T17:26:17;2.20;;;2.10;;
43994;SDS011;51687;52.160;5.298;2023-04-01T17:29:06;2.38;;;2.25;;
43994;SDS011;51687;52.160;5.298;2023-04-01T17:31:52;1.90;;;1.63;;
43994;SDS011;51687;52.160;5.298;2023-04-01T17:34:45;2.10;;;2.00;;
43994;SDS011;51687;52.160;5.298;2023-04-01T18:04:23;3.55;;;3.35;;
43994;SDS011;51687;52.160;5.298;2023-04-01T18:10:10;4.75;;;4.35;;
43994;SDS011;51687;52.160;5.298;2023-04-01T18:23:59;3.95;;;3.65;;
43994;SDS011;51687;52.160;5.298;2023-04-01T18:26:42;2.83;;;2.67;;
43994;SDS011;51687;52.160;5.298;2023-04-01T18:30:17;3.38;;;3.17;;
43994;SDS011;51687;52.160;5.298;2023-04-01T18:32:26;4.57;;;4.28;;
43994;SDS011;51687;52.160;5.298;2023-04-01T18:40:30;3.05;;;2.75;;
43994;SDS011;51687;52.160;5.298;2023-04-01T18:45:33;3.90;;;3.60;;
43994;SDS011;51687;52.160;5.298;2023-04-01T18:48:08;3.13;;;3.03;;
43994;SDS011;51687;52.160;5.298;2023-04-01T18:50:38;2.75;;;2.55;;
43994;SDS011;51687;52.160;5.298;2023-04-01T18:53:28;2.90;;;2.70;;
43994;SDS011;51687;52.160;5.298;2023-04-01T18:55:59;3.97;;;3.72;;
43994;SDS011;51687;52.160;5.298;2023-04-01T19:06:50;3.80;;;3.60;;
43994;SDS011;51687;52.160;5.298;2023-04-01T19:14:59;2.75;;;2.65;;
43994;SDS011;51687;52.160;5.298;2023-04-01T19:17:46;2.75;;;2.60;;
43994;SDS011;51687;52.160;5.298;2023-04-01T19:26:11;3.85;;;3.50;;
43994;SDS011;51687;52.160;5.298;2023-04-01T19:34:25;4.18;;;3.97;;
43994;SDS011;51687;52.160;5.298;2023-04-01T19:37:05;3.97;;;3.58;;
43994;SDS011;51687;52.160;5.298;2023-04-01T19:43:09;4.10;;;3.80;;
43994;SDS011;51687;52.160;5.298;2023-04-01T19:46:10;4.32;;;4.03;;
43994;SDS011;51687;52.160;5.298;2023-04-01T19:54:31;4.63;;;4.32;;
43994;SDS011;51687;52.160;5.298;2023-04-01T19:57:30;5.72;;;5.32;;
43994;SDS011;51687;52.160;5.298;2023-04-01T20:19:07;4.45;;;4.20;;
43994;SDS011;51687;52.160;5.298;2023-04-01T20:21:45;5.40;;;5.00;;
43994;SDS011;51687;52.160;5.298;2023-04-01T20:26:41;4.95;;;3.92;;
43994;SDS011;51687;52.160;5.298;2023-04-01T20:37:44;4.68;;;4.28;;
43994;SDS011;51687;52.160;5.298;2023-04-01T21:00:14;3.70;;;3.40;;
43994;SDS011;51687;52.160;5.298;2023-04-01T21:09:04;3.70;;;3.40;;
43994;SDS011;51687;52.160;5.298;2023-04-01T21:12:00;3.92;;;3.30;;
43994;SDS011;51687;52.160;5.298;2023-04-01T21:14:44;3.35;;;3.15;;
43994;SDS011;51687;52.160;5.298;2023-04-01T21:31:38;4.35;;;3.72;;
43994;SDS011;51687;52.160;5.298;2023-04-01T21:42:41;4.60;;;4.20;;
43994;SDS011;51687;52.160;5.298;2023-04-01T21:56:24;4.47;;;4.07;;
43994;SDS011;51687;52.160;5.298;2023-04-01T21:59:23;4.78;;;4.45;;
43994;SDS011;51687;52.160;5.298;2023-04-01T22:07:18;5.13;;;4.72;;
43994;SDS011;51687;52.160;5.298;2023-04-01T22:12:23;5.47;;;5.07;;
43994;SDS011;51687;52.160;5.298;2023-04-01T22:15:04;5.47;;;4.97;;
43994;SDS011;51687;52.160;5.298;2023-04-01T22:17:44;5.45;;;5.10;;
43994;SDS011;51687;52.160;5.298;2023-04-01T22:20:28;5.57;;;5.00;;
43994;SDS011;51687;52.160;5.298;2023-04-01T22:23:21;4.88;;;4.57;;
43994;SDS011;51687;52.160;5.298;2023-04-01T22:26:09;5.65;;;5.03;;
43994;SDS011;51687;52.160;5.298;2023-04-01T22:31:31;6.63;;;6.13;;
43994;SDS011;51687;52.160;5.298;2023-04-01T22:42:21;6.85;;;6.18;;
43994;SDS011;51687;52.160;5.298;2023-04-01T22:50:40;6.95;;;6.40;;
43994;SDS011;51687;52.160;5.298;2023-04-01T22:55:42;6.43;;;5.68;;
43994;SDS011;51687;52.160;5.298;2023-04-01T22:58:24;6.38;;;5.88;;
43994;SDS011;51687;52.160;5.298;2023-04-01T23:00:58;7.07;;;6.03;;
43994;SDS011;51687;52.160;5.298;2023-04-01T23:03:29;6.50;;;6.00;;
43994;SDS011;51687;52.160;5.298;2023-04-01T23:05:59;5.85;;;5.40;;
43994;SDS011;51687;52.160;5.298;2023-04-01T23:11:32;7.03;;;6.43;;
43994;SDS011;51687;52.160;5.298;2023-04-01T23:14:27;7.68;;;6.60;;
43994;SDS011;51687;52.160;5.298;2023-04-01T23:17:12;8.15;;;6.43;;
43994;SDS011;51687;52.160;5.298;2023-04-01T23:20:10;7.40;;;6.70;;
43994;SDS011;51687;52.160;5.298;2023-04-01T23:22:51;6.75;;;6.25;;
43994;SDS011;51687;52.160;5.298;2023-04-01T23:30:56;7.13;;;6.50;;
43994;SDS011;51687;52.160;5.298;2023-04-01T23:33:30;7.00;;;6.40;;
43994;SDS011;51687;52.160;5.298;2023-04-01T23:36:15;7.32;;;6.63;;
43994;SDS011;51687;52.160;5.298;2023-04-01T23:38:43;7.13;;;6.40;;
43994;SDS011;51687;52.160;5.298;2023-04-01T23:41:30;7.75;;;7.03;;
43994;SDS011;51687;52.160;5.298;2023-04-01T23:44:05;7.28;;;6.68;;
43994;SDS011;51687;52.160;5.298;2023-04-01T23:46:33;7.15;;;6.15;;
43994;SDS011;51687;52.160;5.298;2023-04-01T23:51:29;7.30;;;6.68;;
43994;SDS011;51687;52.160;5.298;2023-04-01T23:56:38;7.97;;;7.32;;
43994;SDS011;51687;52.160;5.298;2023-04-01T23:59:16;7.38;;;6.72;;
